createdAt,value
2018-11-13T00:00:58.993Z,8.70
2018-11-13T00:03:27.463Z,8.70
2018-11-13T00:05:55.914Z,8.70
2018-11-13T00:08:24.430Z,8.70
2018-11-13T00:10:52.907Z,8.70
2018-11-13T00:13:21.390Z,8.70
2018-11-13T00:15:49.905Z,8.70
2018-11-13T00:18:18.378Z,8.70
2018-11-13T00:20:46.896Z,8.70
2018-11-13T00:23:15.412Z,8.70
2018-11-13T00:25:43.921Z,8.70
2018-11-13T00:28:15.623Z,8.70
2018-11-13T00:30:44.158Z,8.70
2018-11-13T00:33:12.703Z,8.70
2018-11-13T00:35:41.241Z,8.70
2018-11-13T00:38:09.860Z,8.70
2018-11-13T00:40:38.396Z,8.70
2018-11-13T00:43:06.937Z,8.60
2018-11-13T00:45:39.511Z,8.70
2018-11-13T00:48:07.967Z,8.60
2018-11-13T00:50:36.492Z,8.60
2018-11-13T00:53:05.047Z,8.60
2018-11-13T00:55:33.525Z,8.60
2018-11-13T00:58:02.002Z,8.60
2018-11-13T01:00:30.527Z,8.60
2018-11-13T01:02:59.064Z,8.60
2018-11-13T01:05:27.629Z,8.60
2018-11-13T01:07:56.099Z,8.50
2018-11-13T01:10:24.677Z,8.50
2018-11-13T01:12:53.199Z,8.50
2018-11-13T01:15:21.718Z,8.50
2018-11-13T01:17:50.583Z,8.50
2018-11-13T01:20:19.525Z,8.50
2018-11-13T01:22:48.042Z,8.50
2018-11-13T01:25:17.226Z,8.40
2018-11-13T01:27:46.080Z,8.40
2018-11-13T01:30:15.381Z,8.40
2018-11-13T01:32:44.369Z,8.40
2018-11-13T01:35:14.162Z,8.40
2018-11-13T01:37:42.740Z,8.40
2018-11-13T01:40:14.562Z,8.40
2018-11-13T01:42:43.306Z,8.40
2018-11-13T01:45:14.038Z,8.40
2018-11-13T01:47:42.526Z,8.40
2018-11-13T01:50:11.481Z,8.40
2018-11-13T01:52:40.021Z,8.40
2018-11-13T01:55:10.264Z,8.40
2018-11-13T01:57:38.787Z,8.40
2018-11-13T02:00:14.294Z,8.40
2018-11-13T02:02:42.920Z,8.40
2018-11-13T02:05:11.435Z,8.40
2018-11-13T02:07:39.990Z,8.40
2018-11-13T02:10:08.771Z,8.40
2018-11-13T02:12:37.390Z,8.30
2018-11-13T02:15:06.877Z,8.30
2018-11-13T02:17:35.519Z,8.30
2018-11-13T02:20:04.686Z,8.30
2018-11-13T02:22:33.264Z,8.30
2018-11-13T02:25:01.968Z,8.30
2018-11-13T02:27:30.467Z,8.30
2018-11-13T02:29:59.017Z,8.30
2018-11-13T02:32:27.539Z,8.30
2018-11-13T02:34:56.090Z,8.30
2018-11-13T02:37:24.668Z,8.20
2018-11-13T02:39:53.166Z,8.20
2018-11-13T02:42:21.835Z,8.20
2018-11-13T02:44:50.331Z,8.30
2018-11-13T02:47:18.925Z,8.30
2018-11-13T02:49:47.498Z,8.20
2018-11-13T02:52:16.074Z,8.30
2018-11-13T02:54:44.579Z,8.20
2018-11-13T02:57:13.156Z,8.20
2018-11-13T02:59:41.660Z,8.20
2018-11-13T03:02:11.003Z,8.20
2018-11-13T03:04:39.554Z,8.20
2018-11-13T03:07:08.132Z,8.20
2018-11-13T03:09:36.723Z,8.20
2018-11-13T03:12:05.362Z,8.20
2018-11-13T03:14:34.118Z,8.20
2018-11-13T03:17:02.728Z,8.20
2018-11-13T03:19:31.529Z,8.20
2018-11-13T03:22:00.038Z,8.20
2018-11-13T03:24:28.604Z,8.20
2018-11-13T03:26:57.188Z,8.20
2018-11-13T03:29:25.721Z,8.20
2018-11-13T03:31:54.360Z,8.20
2018-11-13T03:34:22.938Z,8.10
2018-11-13T03:36:51.517Z,8.10
2018-11-13T03:39:20.082Z,8.10
2018-11-13T03:41:48.591Z,8.10
2018-11-13T03:44:17.131Z,8.20
2018-11-13T03:46:45.702Z,8.20
2018-11-13T03:49:14.292Z,8.10
2018-11-13T03:51:42.883Z,8.10
2018-11-13T03:54:11.461Z,8.10
2018-11-13T03:56:40.044Z,8.10
2018-11-13T03:59:08.568Z,8.10
2018-11-13T04:01:37.147Z,8.00
2018-11-13T04:04:11.146Z,8.00
2018-11-13T04:06:39.709Z,7.80
2018-11-13T04:09:10.059Z,7.80
2018-11-13T04:11:38.924Z,7.80
2018-11-13T04:14:07.426Z,7.70
2018-11-13T04:16:36.482Z,7.60
2018-11-13T04:19:05.470Z,7.60
2018-11-13T04:21:34.300Z,7.50
2018-11-13T04:24:02.834Z,7.50
2018-11-13T04:26:31.382Z,7.50
2018-11-13T04:28:59.964Z,7.50
2018-11-13T04:31:28.500Z,7.40
2018-11-13T04:33:57.094Z,7.50
2018-11-13T04:36:25.642Z,7.50
2018-11-13T04:38:54.226Z,7.50
2018-11-13T04:41:22.738Z,7.50
2018-11-13T04:43:51.291Z,7.50
2018-11-13T04:46:19.813Z,7.40
2018-11-13T04:48:48.381Z,7.30
2018-11-13T04:51:16.880Z,7.20
2018-11-13T04:53:45.374Z,7.20
2018-11-13T04:56:13.986Z,7.10
2018-11-13T04:58:42.544Z,7.10
2018-11-13T05:01:11.191Z,7.00
2018-11-13T05:03:39.740Z,7.00
2018-11-13T05:06:08.304Z,7.00
2018-11-13T05:08:36.798Z,7.00
2018-11-13T05:11:05.700Z,6.90
2018-11-13T05:13:34.224Z,6.90
2018-11-13T05:16:02.728Z,6.90
2018-11-13T05:18:31.274Z,6.90
2018-11-13T05:20:59.769Z,6.80
2018-11-13T05:23:28.269Z,6.80
2018-11-13T05:25:56.808Z,6.80
2018-11-13T05:28:25.298Z,6.80
2018-11-13T05:30:53.774Z,6.80
2018-11-13T05:33:22.253Z,6.80
2018-11-13T05:35:50.709Z,6.80
2018-11-13T05:38:19.291Z,6.90
2018-11-13T05:40:47.874Z,6.90
2018-11-13T05:43:16.321Z,7.00
2018-11-13T05:45:44.824Z,7.10
2018-11-13T05:48:13.322Z,7.10
2018-11-13T05:50:41.766Z,7.10
2018-11-13T05:53:10.238Z,7.20
2018-11-13T05:55:38.711Z,7.20
2018-11-13T05:58:07.188Z,7.20
2018-11-13T06:00:35.701Z,7.20
2018-11-13T06:03:04.659Z,7.20
2018-11-13T06:05:33.601Z,7.30
2018-11-13T06:08:02.117Z,7.30
2018-11-13T06:10:30.591Z,7.40
2018-11-13T06:12:59.112Z,7.40
2018-11-13T06:15:27.620Z,7.50
2018-11-13T06:17:56.176Z,7.50
2018-11-13T06:20:24.776Z,7.50
2018-11-13T06:22:53.332Z,7.60
2018-11-13T06:25:21.785Z,7.60
2018-11-13T06:27:50.346Z,7.60
2018-11-13T06:30:26.177Z,7.70
2018-11-13T06:32:54.886Z,7.70
2018-11-13T06:35:23.395Z,7.70
2018-11-13T06:37:51.923Z,7.80
2018-11-13T06:40:20.366Z,7.80
2018-11-13T06:42:48.890Z,7.80
2018-11-13T06:45:19.624Z,7.90
2018-11-13T06:47:48.821Z,7.90
2018-11-13T06:50:17.425Z,8.00
2018-11-13T06:52:46.771Z,8.00
2018-11-13T06:55:23.890Z,8.10
2018-11-13T06:57:52.365Z,8.20
2018-11-13T07:00:20.829Z,8.30
2018-11-13T07:02:49.317Z,8.30
2018-11-13T07:05:18.522Z,8.40
2018-11-13T07:07:47.135Z,8.40
2018-11-13T07:10:18.035Z,8.60
2018-11-13T07:12:47.758Z,8.60
2018-11-13T07:15:19.374Z,8.80
2018-11-13T07:17:49.266Z,8.90
2018-11-13T07:20:18.891Z,9.00
2018-11-13T07:22:47.394Z,9.10
2018-11-13T07:25:15.915Z,9.40
2018-11-13T07:27:45.632Z,9.70
2018-11-13T07:30:15.202Z,9.70
2018-11-13T07:32:43.803Z,9.60
2018-11-13T07:35:13.524Z,9.70
2018-11-13T07:37:45.562Z,9.80
2018-11-13T07:40:14.066Z,9.90
2018-11-13T07:42:42.625Z,10.10
2018-11-13T07:45:13.548Z,10.30
2018-11-13T07:47:42.937Z,10.50
2018-11-13T07:50:12.158Z,11.00
2018-11-13T07:52:40.641Z,11.30
2018-11-13T07:55:10.253Z,11.60
2018-11-13T07:57:38.830Z,11.90
2018-11-13T08:00:12.768Z,12.00
2018-11-13T08:02:41.938Z,12.10
2018-11-13T08:05:10.516Z,12.40
2018-11-13T08:07:39.036Z,12.60
2018-11-13T08:10:08.305Z,12.90
2018-11-13T08:12:36.751Z,12.90
2018-11-13T08:15:06.602Z,13.10
2018-11-13T08:17:35.094Z,13.40
2018-11-13T08:20:03.675Z,13.70
2018-11-13T08:22:32.158Z,14.50
2018-11-13T08:25:00.621Z,15.30
2018-11-13T08:27:29.092Z,15.80
2018-11-13T08:29:57.547Z,16.20
2018-11-13T08:32:26.053Z,16.50
2018-11-13T08:34:54.592Z,16.50
2018-11-13T08:37:23.106Z,16.30
2018-11-13T08:39:51.674Z,16.50
2018-11-13T08:42:20.199Z,16.70
2018-11-13T08:44:48.693Z,17.10
2018-11-13T08:47:17.482Z,17.40
2018-11-13T08:49:45.974Z,17.90
2018-11-13T08:52:14.484Z,17.90
2018-11-13T08:54:42.957Z,18.00
2018-11-13T08:57:11.543Z,18.00
2018-11-13T08:59:40.088Z,17.70
2018-11-13T09:02:08.634Z,17.40
2018-11-13T09:04:37.165Z,17.00
2018-11-13T09:07:05.869Z,16.90
2018-11-13T09:09:34.372Z,16.70
2018-11-13T09:12:03.275Z,16.70
2018-11-13T09:14:31.713Z,16.70
2018-11-13T09:17:00.178Z,16.70
2018-11-13T09:19:28.870Z,16.70
2018-11-13T09:21:57.215Z,16.70
2018-11-13T09:24:25.743Z,16.60
2018-11-13T09:26:54.319Z,16.70
2018-11-13T09:29:22.850Z,16.70
2018-11-13T09:31:51.402Z,16.60
2018-11-13T09:34:19.862Z,16.70
2018-11-13T09:36:48.340Z,16.80
2018-11-13T09:39:16.865Z,16.90
2018-11-13T09:41:45.370Z,16.80
2018-11-13T09:44:13.889Z,16.70
2018-11-13T09:46:42.358Z,16.70
2018-11-13T09:49:10.838Z,16.70
2018-11-13T09:51:39.395Z,16.60
2018-11-13T09:54:07.877Z,16.40
2018-11-13T09:56:36.423Z,16.30
2018-11-13T09:59:05.210Z,16.40
2018-11-13T10:01:34.156Z,16.20
2018-11-13T10:04:03.684Z,16.20
2018-11-13T10:06:31.679Z,16.00
2018-11-13T10:09:00.187Z,15.90
2018-11-13T10:11:28.735Z,15.90
2018-11-13T10:13:57.429Z,15.90
2018-11-13T10:16:25.895Z,15.80
2018-11-13T10:18:54.402Z,15.90
2018-11-13T10:21:22.878Z,15.90
2018-11-13T10:23:51.407Z,15.80
2018-11-13T10:26:19.976Z,15.80
2018-11-13T10:28:48.407Z,15.60
2018-11-13T10:31:16.906Z,15.50
2018-11-13T10:33:45.370Z,15.60
2018-11-13T10:36:13.888Z,15.40
2018-11-13T10:38:42.354Z,15.30
2018-11-13T10:41:10.881Z,15.30
2018-11-13T10:43:39.336Z,15.40
2018-11-13T10:46:07.787Z,15.20
2018-11-13T10:48:36.282Z,15.30
2018-11-13T10:51:04.769Z,15.30
2018-11-13T10:53:33.238Z,15.30
2018-11-13T10:56:01.743Z,15.30
2018-11-13T10:58:30.202Z,15.30
2018-11-13T11:01:00.055Z,15.30
2018-11-13T11:03:33.893Z,15.30
2018-11-13T11:06:02.455Z,15.30
2018-11-13T11:08:30.927Z,15.30
2018-11-13T11:10:59.434Z,15.30
2018-11-13T11:13:27.961Z,15.20
2018-11-13T11:15:56.418Z,15.20
2018-11-13T11:18:24.914Z,15.20
2018-11-13T11:20:53.412Z,15.20
2018-11-13T11:23:21.941Z,15.20
2018-11-13T11:25:50.422Z,15.20
2018-11-13T11:28:18.888Z,15.20
2018-11-13T11:30:47.434Z,15.20
2018-11-13T11:33:15.950Z,15.20
2018-11-13T11:35:44.578Z,15.10
2018-11-13T11:38:13.151Z,15.10
2018-11-13T11:40:41.617Z,15.10
2018-11-13T11:43:10.125Z,15.20
2018-11-13T11:45:39.272Z,15.20
2018-11-13T11:48:07.750Z,15.20
2018-11-13T11:50:36.214Z,15.20
2018-11-13T11:53:04.715Z,15.20
2018-11-13T11:55:33.180Z,15.20
2018-11-13T11:58:01.728Z,15.20
2018-11-13T12:00:34.609Z,15.20
2018-11-13T12:03:03.154Z,15.20
2018-11-13T12:05:31.662Z,15.20
2018-11-13T12:08:00.259Z,15.10
2018-11-13T12:10:28.870Z,15.20
2018-11-13T12:12:57.351Z,15.10
2018-11-13T12:15:25.870Z,15.20
2018-11-13T12:17:54.380Z,15.20
2018-11-13T12:20:22.886Z,15.20
2018-11-13T12:22:51.509Z,15.20
2018-11-13T12:25:20.668Z,15.20
2018-11-13T12:27:49.135Z,15.30
2018-11-13T12:30:18.787Z,15.30
2018-11-13T12:32:48.194Z,15.30
2018-11-13T12:35:17.592Z,15.30
2018-11-13T12:37:46.089Z,15.40
2018-11-13T12:40:21.968Z,15.30
2018-11-13T12:42:50.852Z,15.30
2018-11-13T12:45:19.696Z,15.30
2018-11-13T12:47:48.213Z,15.40
2018-11-13T12:50:17.918Z,15.40
2018-11-13T12:52:46.498Z,15.40
2018-11-13T12:55:22.942Z,15.40
2018-11-13T12:57:51.498Z,15.40
2018-11-13T13:00:22.317Z,15.50
2018-11-13T13:02:50.974Z,15.50
2018-11-13T13:05:19.639Z,15.50
2018-11-13T13:07:48.147Z,15.50
2018-11-13T13:10:17.779Z,15.50
2018-11-13T13:12:46.312Z,15.50
2018-11-13T13:15:15.988Z,15.60
2018-11-13T13:17:44.798Z,15.60
2018-11-13T13:20:17.565Z,15.60
2018-11-13T13:22:47.052Z,15.60
2018-11-13T13:25:16.655Z,15.50
2018-11-13T13:27:45.194Z,15.50
2018-11-13T13:30:15.777Z,15.50
2018-11-13T13:32:44.719Z,15.50
2018-11-13T13:36:04.655Z,15.50
2018-11-13T13:38:36.636Z,15.50
2018-11-13T13:41:05.518Z,15.50
2018-11-13T13:43:34.561Z,15.50
2018-11-13T13:46:03.048Z,15.50
2018-11-13T13:48:31.531Z,15.40
2018-11-13T13:51:00.028Z,15.40
2018-11-13T13:53:28.741Z,15.30
2018-11-13T13:55:57.282Z,15.30
2018-11-13T13:58:26.159Z,15.20
2018-11-13T14:00:55.434Z,15.20
2018-11-13T14:03:24.167Z,15.10
2018-11-13T14:05:52.776Z,15.10
2018-11-13T14:08:21.268Z,15.00
2018-11-13T14:10:49.773Z,15.00
2018-11-13T14:13:18.293Z,15.00
2018-11-13T14:15:46.815Z,15.00
2018-11-13T14:18:15.357Z,14.90
2018-11-13T14:20:43.913Z,14.90
2018-11-13T14:23:12.393Z,14.80
2018-11-13T14:25:40.890Z,14.80
2018-11-13T14:28:09.390Z,14.80
2018-11-13T14:30:38.255Z,14.70
2018-11-13T14:33:10.074Z,14.60
2018-11-13T14:35:38.681Z,14.50
2018-11-13T14:38:07.312Z,14.50
2018-11-13T14:40:38.233Z,14.40
2018-11-13T14:43:07.059Z,14.40
2018-11-13T14:45:35.558Z,14.40
2018-11-13T14:48:04.112Z,14.30
2018-11-13T14:50:34.019Z,14.20
2018-11-13T14:53:02.615Z,14.20
2018-11-13T14:55:32.649Z,14.10
2018-11-13T14:58:02.021Z,14.10
2018-11-13T15:00:31.658Z,13.90
2018-11-13T15:03:00.827Z,13.90
2018-11-13T15:05:29.931Z,13.80
2018-11-13T15:07:59.801Z,13.80
2018-11-13T15:10:32.479Z,13.70
2018-11-13T15:13:01.098Z,13.60
2018-11-13T15:15:29.597Z,13.50
2018-11-13T15:17:58.137Z,13.50
2018-11-13T15:20:26.670Z,13.50
2018-11-13T15:22:55.204Z,13.40
2018-11-13T15:25:23.851Z,13.30
2018-11-13T15:27:52.310Z,13.30
2018-11-13T15:30:22.467Z,13.30
2018-11-13T15:32:53.521Z,13.30
2018-11-13T15:35:22.043Z,13.20
2018-11-13T15:37:50.552Z,13.10
2018-11-13T15:40:23.546Z,13.10
2018-11-13T15:42:52.331Z,13.00
2018-11-13T15:45:21.211Z,13.00
2018-11-13T15:47:50.515Z,13.00
2018-11-13T15:50:21.175Z,12.90
2018-11-13T15:52:50.005Z,12.90
2018-11-13T15:55:19.153Z,12.80
2018-11-13T15:57:48.071Z,12.70
2018-11-13T16:00:28.838Z,12.70
2018-11-13T16:02:58.434Z,12.70
2018-11-13T16:05:31.168Z,12.60
2018-11-13T16:08:00.518Z,12.60
2018-11-13T16:10:29.000Z,12.60
2018-11-13T16:12:57.632Z,12.50
2018-11-13T16:15:26.661Z,12.50
2018-11-13T16:17:56.366Z,12.40
2018-11-13T16:20:26.183Z,12.40
2018-11-13T16:22:54.747Z,12.40
2018-11-13T16:25:23.305Z,12.30
2018-11-13T16:27:51.747Z,12.30
2018-11-13T16:30:23.372Z,12.30
2018-11-13T16:32:52.289Z,12.20
2018-11-13T16:35:21.957Z,12.20
2018-11-13T16:37:51.124Z,12.20
2018-11-13T16:40:21.245Z,12.10
2018-11-13T16:42:50.809Z,12.10
2018-11-13T16:45:21.116Z,12.00
2018-11-13T16:47:50.747Z,12.00
2018-11-13T16:50:35.585Z,12.00
2018-11-13T16:53:04.189Z,12.00
2018-11-13T16:55:37.826Z,11.90
2018-11-13T16:58:07.489Z,11.90
2018-11-13T17:00:38.025Z,11.90
2018-11-13T17:03:06.611Z,11.90
2018-11-13T17:05:35.273Z,11.90
2018-11-13T17:08:03.702Z,11.80
2018-11-13T17:10:33.059Z,11.80
2018-11-13T17:13:02.122Z,11.70
2018-11-13T17:15:31.539Z,11.70
2018-11-13T17:18:01.168Z,11.80
2018-11-13T17:20:29.805Z,11.80
2018-11-13T17:22:58.273Z,11.80
2018-11-13T17:25:28.367Z,11.90
2018-11-13T17:27:57.256Z,11.90
2018-11-13T17:30:27.637Z,11.90
2018-11-13T17:32:57.769Z,11.90
2018-11-13T17:35:27.002Z,11.90
2018-11-13T17:37:56.125Z,12.00
2018-11-13T17:40:25.792Z,11.90
2018-11-13T17:42:55.550Z,11.90
2018-11-13T17:45:33.816Z,11.90
2018-11-13T17:48:02.364Z,11.90
2018-11-13T17:50:32.566Z,11.90
2018-11-13T17:53:01.150Z,11.90
2018-11-13T17:55:29.745Z,11.90
2018-11-13T17:58:00.593Z,11.90
2018-11-13T18:00:36.834Z,11.90
2018-11-13T18:03:07.440Z,11.90
2018-11-13T18:05:36.231Z,11.90
2018-11-13T18:08:05.384Z,11.90
2018-11-13T18:10:34.792Z,11.90
2018-11-13T18:13:03.427Z,11.90
2018-11-13T18:15:31.985Z,11.90
2018-11-13T18:18:00.593Z,11.90
2018-11-13T18:20:32.184Z,11.90
2018-11-13T18:23:00.812Z,11.90
2018-11-13T18:25:29.458Z,11.90
2018-11-13T18:27:59.385Z,11.90
2018-11-13T18:30:29.546Z,11.80
2018-11-13T18:32:58.916Z,11.90
2018-11-13T18:35:29.899Z,11.90
2018-11-13T18:37:59.562Z,11.90
2018-11-13T18:40:28.613Z,11.80
2018-11-13T18:42:58.631Z,11.80
2018-11-13T18:45:29.678Z,11.80
2018-11-13T18:47:58.490Z,11.80
2018-11-13T18:50:32.206Z,11.80
2018-11-13T18:53:01.003Z,11.80
2018-11-13T18:55:29.724Z,11.80
2018-11-13T18:57:59.032Z,11.90
2018-11-13T19:00:29.798Z,11.90
2018-11-13T19:02:59.201Z,11.80
2018-11-13T19:05:28.354Z,11.80
2018-11-13T19:07:57.232Z,11.80
2018-11-13T19:10:33.515Z,11.80
2018-11-13T19:13:03.215Z,11.80
2018-11-13T19:15:33.475Z,11.90
2018-11-13T19:18:02.281Z,11.80
2018-11-13T19:20:31.372Z,11.80
2018-11-13T19:23:00.187Z,11.80
2018-11-13T19:25:30.344Z,11.80
2018-11-13T19:27:59.618Z,11.80
2018-11-13T19:30:28.396Z,11.70
2018-11-13T19:32:57.186Z,11.70
2018-11-13T19:35:26.430Z,11.70
2018-11-13T19:37:55.852Z,11.60
2018-11-13T19:40:25.880Z,11.60
2018-11-13T19:42:55.619Z,11.60
2018-11-13T19:45:24.538Z,11.50
2018-11-13T19:47:53.351Z,11.50
2018-11-13T19:50:23.569Z,11.40
2018-11-13T19:52:52.408Z,11.40
2018-11-13T19:55:21.774Z,11.40
2018-11-13T19:57:50.630Z,11.30
2018-11-13T20:00:20.748Z,11.30
2018-11-13T20:02:50.739Z,11.30
2018-11-13T20:05:21.470Z,11.30
2018-11-13T20:07:50.225Z,11.30
2018-11-13T20:10:22.296Z,11.30
2018-11-13T20:12:56.448Z,11.20
2018-11-13T20:15:26.144Z,11.20
2018-11-13T20:17:54.814Z,11.20
2018-11-13T20:20:24.770Z,11.20
2018-11-13T20:22:54.544Z,11.20
2018-11-13T20:25:24.287Z,11.20
2018-11-13T20:27:52.837Z,11.20
2018-11-13T20:30:22.759Z,11.10
2018-11-13T20:32:51.406Z,11.10
2018-11-13T20:35:20.088Z,11.10
2018-11-13T20:37:50.355Z,11.10
2018-11-13T20:40:21.866Z,11.10
2018-11-13T20:42:51.713Z,11.00
2018-11-13T20:45:20.450Z,11.10
2018-11-13T20:47:49.129Z,11.00
2018-11-13T20:50:21.089Z,11.00
2018-11-13T20:52:49.629Z,11.00
2018-11-13T20:55:18.204Z,11.00
2018-11-13T20:57:46.842Z,11.00
2018-11-13T21:00:18.778Z,11.00
2018-11-13T21:02:47.629Z,11.00
2018-11-13T21:05:17.167Z,10.90
2018-11-13T21:07:46.149Z,11.00
2018-11-13T21:10:16.236Z,10.90
2018-11-13T21:12:45.458Z,11.00
2018-11-13T21:15:16.465Z,11.00
2018-11-13T21:17:45.798Z,10.90
2018-11-13T21:20:18.441Z,11.00
2018-11-13T21:22:47.115Z,11.00
2018-11-13T21:25:18.092Z,10.90
2018-11-13T21:27:46.846Z,10.90
2018-11-13T21:30:17.690Z,10.90
2018-11-13T21:32:48.984Z,10.90
2018-11-13T21:35:18.059Z,10.80
2018-11-13T21:37:47.956Z,10.80
2018-11-13T21:40:18.700Z,10.80
2018-11-13T21:42:48.734Z,10.80
2018-11-13T21:45:19.190Z,10.80
2018-11-13T21:47:48.410Z,10.70
2018-11-13T21:50:19.377Z,10.70
2018-11-13T21:52:47.955Z,10.70
2018-11-13T21:55:18.124Z,10.70
2018-11-13T21:57:46.717Z,10.70
2018-11-13T22:00:20.519Z,10.60
2018-11-13T22:02:54.780Z,10.60
2018-11-13T22:05:24.049Z,10.60
2018-11-13T22:07:53.476Z,10.50
2018-11-13T22:10:28.830Z,10.50
2018-11-13T22:12:57.454Z,10.40
2018-11-13T22:15:27.352Z,10.40
2018-11-13T22:17:56.043Z,10.40
2018-11-13T22:20:25.300Z,10.30
2018-11-13T22:22:56.240Z,10.30
2018-11-13T22:25:26.093Z,10.30
2018-11-13T22:27:55.940Z,10.30
2018-11-13T22:30:27.716Z,10.30
2018-11-13T22:32:56.438Z,10.20
2018-11-13T22:35:25.061Z,10.30
2018-11-13T22:37:53.672Z,10.20
2018-11-13T22:40:23.722Z,10.30
2018-11-13T22:42:52.404Z,10.20
2018-11-13T22:45:22.183Z,10.20
2018-11-13T22:47:51.016Z,10.20
2018-11-13T22:50:21.948Z,10.20
2018-11-13T22:52:50.810Z,10.20
2018-11-13T22:55:19.996Z,10.20
2018-11-13T22:57:49.416Z,10.20
2018-11-13T23:00:20.333Z,10.20
2018-11-13T23:02:50.619Z,10.20
2018-11-13T23:05:19.262Z,10.10
2018-11-13T23:07:47.947Z,10.20
2018-11-13T23:10:17.973Z,10.10
2018-11-13T23:12:46.760Z,10.20
2018-11-13T23:15:19.882Z,10.20
2018-11-13T23:17:48.466Z,10.20
2018-11-13T23:20:19.481Z,10.20
2018-11-13T23:22:48.120Z,10.20
2018-11-13T23:25:18.716Z,10.20
2018-11-13T23:27:49.424Z,10.10
2018-11-13T23:30:19.862Z,10.20
2018-11-13T23:32:48.696Z,10.10
2018-11-13T23:35:17.398Z,10.10
2018-11-13T23:37:47.533Z,10.10
2018-11-13T23:40:18.253Z,10.10
2018-11-13T23:42:47.257Z,10.10
2018-11-13T23:45:16.877Z,10.10
2018-11-13T23:47:45.781Z,10.10
2018-11-13T23:50:14.632Z,10.00
2018-11-13T23:52:43.707Z,10.00
2018-11-13T23:55:13.666Z,10.00
2018-11-13T23:57:42.782Z,10.00
